sensor_id;sensor_type;location;lat;lon;timestamp;temperature;humidity
78694;SHT31;68029;51.978;5.646;2024-01-25T00:00:25;9.7;68.1
78694;SHT31;68029;51.978;5.646;2024-01-25T00:02:54;9.7;68.1
78694;SHT31;68029;51.978;5.646;2024-01-25T00:05:22;9.6;67.9
78694;SHT31;68029;51.978;5.646;2024-01-25T00:07:52;9.6;68.1
78694;SHT31;68029;51.978;5.646;2024-01-25T00:10:21;9.6;68.1
78694;SHT31;68029;51.978;5.646;2024-01-25T00:12:50;9.5;68.2
78694;SHT31;68029;51.978;5.646;2024-01-25T00:15:18;9.5;68.2
78694;SHT31;68029;51.978;5.646;2024-01-25T00:17:48;9.4;68.3
78694;SHT31;68029;51.978;5.646;2024-01-25T00:20:17;9.4;68.3
78694;SHT31;68029;51.978;5.646;2024-01-25T00:22:45;9.4;68.2
78694;SHT31;68029;51.978;5.646;2024-01-25T00:25:14;9.3;68.2
78694;SHT31;68029;51.978;5.646;2024-01-25T00:27:42;9.3;68.3
78694;SHT31;68029;51.978;5.646;2024-01-25T00:30:12;9.2;68.4
78694;SHT31;68029;51.978;5.646;2024-01-25T00:32:41;9.2;68.6
78694;SHT31;68029;51.978;5.646;2024-01-25T00:35:10;9.2;68.5
78694;SHT31;68029;51.978;5.646;2024-01-25T00:37:41;9.1;68.6
78694;SHT31;68029;51.978;5.646;2024-01-25T00:40:11;9.1;68.6
78694;SHT31;68029;51.978;5.646;2024-01-25T00:42:43;9.1;68.6
78694;SHT31;68029;51.978;5.646;2024-01-25T00:45:16;9.1;68.8
78694;SHT31;68029;51.978;5.646;2024-01-25T00:47:45;9.0;68.8
78694;SHT31;68029;51.978;5.646;2024-01-25T00:50:15;9.0;68.8
78694;SHT31;68029;51.978;5.646;2024-01-25T00:52:47;9.0;68.8
78694;SHT31;68029;51.978;5.646;2024-01-25T00:55:17;8.9;68.7
78694;SHT31;68029;51.978;5.646;2024-01-25T00:57:47;8.9;68.7
78694;SHT31;68029;51.978;5.646;2024-01-25T01:00:19;8.9;69.0
78694;SHT31;68029;51.978;5.646;2024-01-25T01:02:49;8.9;69.0
78694;SHT31;68029;51.978;5.646;2024-01-25T01:05:19;8.8;68.9
78694;SHT31;68029;51.978;5.646;2024-01-25T01:07:48;8.8;68.7
78694;SHT31;68029;51.978;5.646;2024-01-25T01:10:19;8.8;68.5
78694;SHT31;68029;51.978;5.646;2024-01-25T01:12:48;8.8;68.3
78694;SHT31;68029;51.978;5.646;2024-01-25T01:15:18;8.8;68.3
78694;SHT31;68029;51.978;5.646;2024-01-25T01:17:48;8.8;68.3
78694;SHT31;68029;51.978;5.646;2024-01-25T01:20:17;8.7;68.4
78694;SHT31;68029;51.978;5.646;2024-01-25T01:22:46;8.7;68.7
78694;SHT31;68029;51.978;5.646;2024-01-25T01:25:15;8.7;69.0
78694;SHT31;68029;51.978;5.646;2024-01-25T01:27:43;8.7;69.2
78694;SHT31;68029;51.978;5.646;2024-01-25T01:30:12;8.6;69.2
78694;SHT31;68029;51.978;5.646;2024-01-25T01:32:40;8.6;69.0
78694;SHT31;68029;51.978;5.646;2024-01-25T01:35:09;8.6;68.8
78694;SHT31;68029;51.978;5.646;2024-01-25T01:37:39;8.6;69.1
78694;SHT31;68029;51.978;5.646;2024-01-25T01:40:09;8.6;69.1
78694;SHT31;68029;51.978;5.646;2024-01-25T01:42:38;8.6;68.8
78694;SHT31;68029;51.978;5.646;2024-01-25T01:45:09;8.5;69.1
78694;SHT31;68029;51.978;5.646;2024-01-25T01:47:40;8.5;69.0
78694;SHT31;68029;51.978;5.646;2024-01-25T01:50:10;8.5;69.1
78694;SHT31;68029;51.978;5.646;2024-01-25T01:52:39;8.5;69.1
78694;SHT31;68029;51.978;5.646;2024-01-25T01:55:11;8.4;69.3
78694;SHT31;68029;51.978;5.646;2024-01-25T01:57:40;8.3;69.7
78694;SHT31;68029;51.978;5.646;2024-01-25T02:00:10;8.3;69.7
78694;SHT31;68029;51.978;5.646;2024-01-25T02:02:39;8.3;70.0
78694;SHT31;68029;51.978;5.646;2024-01-25T02:05:09;8.2;69.9
78694;SHT31;68029;51.978;5.646;2024-01-25T02:07:37;8.2;69.9
78694;SHT31;68029;51.978;5.646;2024-01-25T02:10:08;8.2;69.9
78694;SHT31;68029;51.978;5.646;2024-01-25T02:12:37;8.2;69.9
78694;SHT31;68029;51.978;5.646;2024-01-25T02:15:10;8.1;69.6
78694;SHT31;68029;51.978;5.646;2024-01-25T02:17:40;8.1;69.7
78694;SHT31;68029;51.978;5.646;2024-01-25T02:20:10;8.1;69.5
78694;SHT31;68029;51.978;5.646;2024-01-25T02:22:39;8.1;69.6
78694;SHT31;68029;51.978;5.646;2024-01-25T02:25:08;8.1;69.8
78694;SHT31;68029;51.978;5.646;2024-01-25T02:27:37;8.0;70.0
78694;SHT31;68029;51.978;5.646;2024-01-25T02:30:07;8.0;69.9
78694;SHT31;68029;51.978;5.646;2024-01-25T02:32:36;8.0;70.3
78694;SHT31;68029;51.978;5.646;2024-01-25T02:35:05;7.9;70.4
78694;SHT31;68029;51.978;5.646;2024-01-25T02:37:34;7.9;70.2
78694;SHT31;68029;51.978;5.646;2024-01-25T02:40:05;7.9;69.8
78694;SHT31;68029;51.978;5.646;2024-01-25T02:42:34;7.9;70.0
78694;SHT31;68029;51.978;5.646;2024-01-25T02:45:03;7.9;70.1
78694;SHT31;68029;51.978;5.646;2024-01-25T02:47:31;7.8;69.8
78694;SHT31;68029;51.978;5.646;2024-01-25T02:50:00;7.8;69.4
78694;SHT31;68029;51.978;5.646;2024-01-25T02:52:28;7.8;70.3
78694;SHT31;68029;51.978;5.646;2024-01-25T02:54:57;7.8;70.1
78694;SHT31;68029;51.978;5.646;2024-01-25T02:57:25;7.8;70.2
78694;SHT31;68029;51.978;5.646;2024-01-25T02:59:54;7.7;70.5
78694;SHT31;68029;51.978;5.646;2024-01-25T03:02:23;7.7;70.8
78694;SHT31;68029;51.978;5.646;2024-01-25T03:04:51;7.7;71.0
78694;SHT31;68029;51.978;5.646;2024-01-25T03:07:23;7.7;70.8
78694;SHT31;68029;51.978;5.646;2024-01-25T03:09:51;7.6;70.9
78694;SHT31;68029;51.978;5.646;2024-01-25T03:12:20;7.6;70.9
78694;SHT31;68029;51.978;5.646;2024-01-25T03:14:48;7.6;70.9
78694;SHT31;68029;51.978;5.646;2024-01-25T03:17:17;7.6;71.1
78694;SHT31;68029;51.978;5.646;2024-01-25T03:19:45;7.5;71.4
78694;SHT31;68029;51.978;5.646;2024-01-25T03:22:15;7.5;71.4
78694;SHT31;68029;51.978;5.646;2024-01-25T03:24:43;7.5;71.3
78694;SHT31;68029;51.978;5.646;2024-01-25T03:27:11;7.5;71.0
78694;SHT31;68029;51.978;5.646;2024-01-25T03:29:42;7.4;70.9
78694;SHT31;68029;51.978;5.646;2024-01-25T03:32:11;7.4;70.9
78694;SHT31;68029;51.978;5.646;2024-01-25T03:34:39;7.4;71.0
78694;SHT31;68029;51.978;5.646;2024-01-25T03:37:08;7.4;71.0
78694;SHT31;68029;51.978;5.646;2024-01-25T03:39:36;7.4;70.9
78694;SHT31;68029;51.978;5.646;2024-01-25T03:42:05;7.4;70.3
78694;SHT31;68029;51.978;5.646;2024-01-25T03:44:34;7.4;70.8
78694;SHT31;68029;51.978;5.646;2024-01-25T03:47:04;7.4;71.6
78694;SHT31;68029;51.978;5.646;2024-01-25T03:49:32;7.3;72.2
78694;SHT31;68029;51.978;5.646;2024-01-25T03:52:00;7.3;72.5
78694;SHT31;68029;51.978;5.646;2024-01-25T03:54:29;7.3;72.6
78694;SHT31;68029;51.978;5.646;2024-01-25T03:56:58;7.3;73.0
78694;SHT31;68029;51.978;5.646;2024-01-25T03:59:26;7.3;72.6
78694;SHT31;68029;51.978;5.646;2024-01-25T04:01:55;7.2;72.6
78694;SHT31;68029;51.978;5.646;2024-01-25T04:04:23;7.2;72.7
78694;SHT31;68029;51.978;5.646;2024-01-25T04:06:52;7.2;72.8
78694;SHT31;68029;51.978;5.646;2024-01-25T04:09:20;7.2;72.8
78694;SHT31;68029;51.978;5.646;2024-01-25T04:11:48;7.2;72.4
78694;SHT31;68029;51.978;5.646;2024-01-25T04:14:17;7.1;72.1
78694;SHT31;68029;51.978;5.646;2024-01-25T04:16:46;7.1;71.6
78694;SHT31;68029;51.978;5.646;2024-01-25T04:19:15;7.1;71.2
78694;SHT31;68029;51.978;5.646;2024-01-25T04:21:44;7.1;71.7
78694;SHT31;68029;51.978;5.646;2024-01-25T04:24:12;7.1;71.4
78694;SHT31;68029;51.978;5.646;2024-01-25T04:26:41;7.1;71.6
78694;SHT31;68029;51.978;5.646;2024-01-25T04:29:09;7.1;71.3
78694;SHT31;68029;51.978;5.646;2024-01-25T04:31:44;7.1;71.8
78694;SHT31;68029;51.978;5.646;2024-01-25T04:34:15;7.1;71.4
78694;SHT31;68029;51.978;5.646;2024-01-25T04:36:44;7.1;71.3
78694;SHT31;68029;51.978;5.646;2024-01-25T04:39:13;7.0;71.3
78694;SHT31;68029;51.978;5.646;2024-01-25T04:41:41;7.0;70.9
78694;SHT31;68029;51.978;5.646;2024-01-25T04:44:10;7.0;70.5
78694;SHT31;68029;51.978;5.646;2024-01-25T04:46:40;7.0;70.4
78694;SHT31;68029;51.978;5.646;2024-01-25T04:49:10;7.0;70.8
78694;SHT31;68029;51.978;5.646;2024-01-25T04:51:41;7.0;70.8
78694;SHT31;68029;51.978;5.646;2024-01-25T04:54:09;7.0;71.2
78694;SHT31;68029;51.978;5.646;2024-01-25T04:56:39;7.0;71.9
78694;SHT31;68029;51.978;5.646;2024-01-25T04:59:07;6.9;72.1
78694;SHT31;68029;51.978;5.646;2024-01-25T05:01:36;6.9;71.4
78694;SHT31;68029;51.978;5.646;2024-01-25T05:04:05;6.9;70.6
78694;SHT31;68029;51.978;5.646;2024-01-25T05:06:33;6.9;70.5
78694;SHT31;68029;51.978;5.646;2024-01-25T05:09:03;6.9;70.2
78694;SHT31;68029;51.978;5.646;2024-01-25T05:11:37;6.8;69.8
78694;SHT31;68029;51.978;5.646;2024-01-25T05:14:06;6.8;70.0
78694;SHT31;68029;51.978;5.646;2024-01-25T05:16:35;6.8;69.9
78694;SHT31;68029;51.978;5.646;2024-01-25T05:19:04;6.8;69.8
78694;SHT31;68029;51.978;5.646;2024-01-25T05:21:32;6.8;69.4
78694;SHT31;68029;51.978;5.646;2024-01-25T05:24:01;6.8;69.3
78694;SHT31;68029;51.978;5.646;2024-01-25T05:26:30;6.7;69.6
78694;SHT31;68029;51.978;5.646;2024-01-25T05:28:58;6.7;70.1
78694;SHT31;68029;51.978;5.646;2024-01-25T05:31:27;6.7;70.1
78694;SHT31;68029;51.978;5.646;2024-01-25T05:33:55;6.7;70.8
78694;SHT31;68029;51.978;5.646;2024-01-25T05:36:23;6.7;71.0
78694;SHT31;68029;51.978;5.646;2024-01-25T05:38:52;6.7;72.1
78694;SHT31;68029;51.978;5.646;2024-01-25T05:41:20;6.6;73.1
78694;SHT31;68029;51.978;5.646;2024-01-25T05:43:49;6.6;73.4
78694;SHT31;68029;51.978;5.646;2024-01-25T05:46:17;6.6;73.0
78694;SHT31;68029;51.978;5.646;2024-01-25T05:48:45;6.5;72.8
78694;SHT31;68029;51.978;5.646;2024-01-25T05:51:14;6.5;72.0
78694;SHT31;68029;51.978;5.646;2024-01-25T05:53:42;6.5;72.3
78694;SHT31;68029;51.978;5.646;2024-01-25T05:56:11;6.5;71.7
78694;SHT31;68029;51.978;5.646;2024-01-25T05:58:39;6.5;71.4
78694;SHT31;68029;51.978;5.646;2024-01-25T06:01:08;6.5;72.3
78694;SHT31;68029;51.978;5.646;2024-01-25T06:03:36;6.5;73.0
78694;SHT31;68029;51.978;5.646;2024-01-25T06:06:05;6.4;72.1
78694;SHT31;68029;51.978;5.646;2024-01-25T06:08:34;6.4;71.3
78694;SHT31;68029;51.978;5.646;2024-01-25T06:11:03;6.4;71.4
78694;SHT31;68029;51.978;5.646;2024-01-25T06:13:32;6.4;71.2
78694;SHT31;68029;51.978;5.646;2024-01-25T06:16:00;6.4;71.5
78694;SHT31;68029;51.978;5.646;2024-01-25T06:18:29;6.3;72.3
78694;SHT31;68029;51.978;5.646;2024-01-25T06:20:57;6.3;72.3
78694;SHT31;68029;51.978;5.646;2024-01-25T06:23:27;6.3;71.8
78694;SHT31;68029;51.978;5.646;2024-01-25T06:25:56;6.3;71.8
78694;SHT31;68029;51.978;5.646;2024-01-25T06:28:25;6.3;72.3
78694;SHT31;68029;51.978;5.646;2024-01-25T06:30:54;6.2;72.3
78694;SHT31;68029;51.978;5.646;2024-01-25T06:33:23;6.2;73.3
78694;SHT31;68029;51.978;5.646;2024-01-25T06:35:51;6.2;75.0
78694;SHT31;68029;51.978;5.646;2024-01-25T06:38:20;6.2;76.1
78694;SHT31;68029;51.978;5.646;2024-01-25T06:40:49;6.2;76.5
78694;SHT31;68029;51.978;5.646;2024-01-25T06:43:17;6.2;76.8
78694;SHT31;68029;51.978;5.646;2024-01-25T06:45:46;6.2;76.3
78694;SHT31;68029;51.978;5.646;2024-01-25T06:48:16;6.2;76.4
78694;SHT31;68029;51.978;5.646;2024-01-25T06:50:44;6.2;76.6
78694;SHT31;68029;51.978;5.646;2024-01-25T06:53:13;6.3;76.3
78694;SHT31;68029;51.978;5.646;2024-01-25T06:55:43;6.3;76.0
78694;SHT31;68029;51.978;5.646;2024-01-25T06:58:11;6.3;76.0
78694;SHT31;68029;51.978;5.646;2024-01-25T07:00:40;6.3;75.9
78694;SHT31;68029;51.978;5.646;2024-01-25T07:03:09;6.3;75.9
78694;SHT31;68029;51.978;5.646;2024-01-25T07:05:38;6.3;75.7
78694;SHT31;68029;51.978;5.646;2024-01-25T07:08:07;6.3;75.2
78694;SHT31;68029;51.978;5.646;2024-01-25T07:10:39;6.3;75.0
78694;SHT31;68029;51.978;5.646;2024-01-25T07:13:08;6.3;73.4
78694;SHT31;68029;51.978;5.646;2024-01-25T07:15:37;6.3;73.4
78694;SHT31;68029;51.978;5.646;2024-01-25T07:18:08;6.3;73.5
78694;SHT31;68029;51.978;5.646;2024-01-25T07:20:37;6.3;74.1
78694;SHT31;68029;51.978;5.646;2024-01-25T07:23:05;6.3;73.1
78694;SHT31;68029;51.978;5.646;2024-01-25T07:25:36;6.3;72.4
78694;SHT31;68029;51.978;5.646;2024-01-25T07:28:05;6.3;71.9
78694;SHT31;68029;51.978;5.646;2024-01-25T07:30:34;6.3;72.5
78694;SHT31;68029;51.978;5.646;2024-01-25T07:33:03;6.3;72.7
78694;SHT31;68029;51.978;5.646;2024-01-25T07:35:32;6.3;72.6
78694;SHT31;68029;51.978;5.646;2024-01-25T07:38:00;6.3;73.2
78694;SHT31;68029;51.978;5.646;2024-01-25T07:40:29;6.3;73.6
78694;SHT31;68029;51.978;5.646;2024-01-25T07:42:57;6.4;73.6
78694;SHT31;68029;51.978;5.646;2024-01-25T07:45:25;6.4;73.2
78694;SHT31;68029;51.978;5.646;2024-01-25T07:47:54;6.4;73.1
78694;SHT31;68029;51.978;5.646;2024-01-25T07:50:22;6.4;73.1
78694;SHT31;68029;51.978;5.646;2024-01-25T07:52:51;6.4;73.3
78694;SHT31;68029;51.978;5.646;2024-01-25T07:55:19;6.4;72.9
78694;SHT31;68029;51.978;5.646;2024-01-25T07:57:48;6.4;72.7
78694;SHT31;68029;51.978;5.646;2024-01-25T08:00:17;6.5;72.6
78694;SHT31;68029;51.978;5.646;2024-01-25T08:02:46;6.5;72.8
78694;SHT31;68029;51.978;5.646;2024-01-25T08:05:14;6.5;72.8
78694;SHT31;68029;51.978;5.646;2024-01-25T08:07:45;6.5;72.6
78694;SHT31;68029;51.978;5.646;2024-01-25T08:10:15;6.5;72.7
78694;SHT31;68029;51.978;5.646;2024-01-25T08:12:46;6.5;73.3
78694;SHT31;68029;51.978;5.646;2024-01-25T08:15:14;6.5;74.8
78694;SHT31;68029;51.978;5.646;2024-01-25T08:17:43;6.5;75.4
78694;SHT31;68029;51.978;5.646;2024-01-25T08:20:12;6.5;75.9
78694;SHT31;68029;51.978;5.646;2024-01-25T08:22:42;6.6;76.1
78694;SHT31;68029;51.978;5.646;2024-01-25T08:25:10;6.6;75.9
78694;SHT31;68029;51.978;5.646;2024-01-25T08:27:40;6.6;76.1
78694;SHT31;68029;51.978;5.646;2024-01-25T08:30:10;6.6;75.8
78694;SHT31;68029;51.978;5.646;2024-01-25T08:32:39;6.7;75.8
78694;SHT31;68029;51.978;5.646;2024-01-25T08:35:08;6.7;75.8
78694;SHT31;68029;51.978;5.646;2024-01-25T08:37:37;6.8;75.7
78694;SHT31;68029;51.978;5.646;2024-01-25T08:40:07;6.8;75.6
78694;SHT31;68029;51.978;5.646;2024-01-25T08:42:36;6.9;75.4
78694;SHT31;68029;51.978;5.646;2024-01-25T08:45:06;6.9;75.3
78694;SHT31;68029;51.978;5.646;2024-01-25T08:47:36;7.0;75.5
78694;SHT31;68029;51.978;5.646;2024-01-25T08:50:05;7.0;76.2
78694;SHT31;68029;51.978;5.646;2024-01-25T08:52:36;7.0;76.5
78694;SHT31;68029;51.978;5.646;2024-01-25T08:55:08;7.0;76.7
78694;SHT31;68029;51.978;5.646;2024-01-25T08:57:37;7.0;76.6
78694;SHT31;68029;51.978;5.646;2024-01-25T09:00:08;7.1;76.8
78694;SHT31;68029;51.978;5.646;2024-01-25T09:02:38;7.2;76.7
78694;SHT31;68029;51.978;5.646;2024-01-25T09:05:08;7.2;76.6
78694;SHT31;68029;51.978;5.646;2024-01-25T09:07:37;7.3;76.6
78694;SHT31;68029;51.978;5.646;2024-01-25T09:10:07;7.4;76.3
78694;SHT31;68029;51.978;5.646;2024-01-25T09:12:39;7.4;76.2
78694;SHT31;68029;51.978;5.646;2024-01-25T09:15:09;7.5;76.2
78694;SHT31;68029;51.978;5.646;2024-01-25T09:17:38;7.6;75.9
78694;SHT31;68029;51.978;5.646;2024-01-25T09:20:07;7.7;76.3
78694;SHT31;68029;51.978;5.646;2024-01-25T09:22:37;7.7;75.3
78694;SHT31;68029;51.978;5.646;2024-01-25T09:25:06;7.8;75.6
78694;SHT31;68029;51.978;5.646;2024-01-25T09:27:35;7.8;75.5
78694;SHT31;68029;51.978;5.646;2024-01-25T09:30:05;7.8;75.7
78694;SHT31;68029;51.978;5.646;2024-01-25T09:32:37;7.8;75.4
78694;SHT31;68029;51.978;5.646;2024-01-25T09:35:06;7.9;75.1
78694;SHT31;68029;51.978;5.646;2024-01-25T09:37:35;7.9;75.4
78694;SHT31;68029;51.978;5.646;2024-01-25T09:40:04;7.9;75.1
78694;SHT31;68029;51.978;5.646;2024-01-25T09:42:33;7.9;75.0
78694;SHT31;68029;51.978;5.646;2024-01-25T09:45:06;7.9;75.0
78694;SHT31;68029;51.978;5.646;2024-01-25T09:47:37;7.9;75.3
78694;SHT31;68029;51.978;5.646;2024-01-25T09:50:07;7.9;75.6
78694;SHT31;68029;51.978;5.646;2024-01-25T09:52:38;8.0;75.6
78694;SHT31;68029;51.978;5.646;2024-01-25T09:55:08;8.0;75.6
78694;SHT31;68029;51.978;5.646;2024-01-25T09:57:41;8.0;75.8
78694;SHT31;68029;51.978;5.646;2024-01-25T10:00:13;8.1;76.1
78694;SHT31;68029;51.978;5.646;2024-01-25T10:02:44;8.1;76.4
78694;SHT31;68029;51.978;5.646;2024-01-25T10:05:12;8.2;76.4
78694;SHT31;68029;51.978;5.646;2024-01-25T10:07:42;8.3;76.7
78694;SHT31;68029;51.978;5.646;2024-01-25T10:10:12;8.4;76.9
78694;SHT31;68029;51.978;5.646;2024-01-25T10:12:42;8.5;76.4
78694;SHT31;68029;51.978;5.646;2024-01-25T10:15:11;8.6;75.3
78694;SHT31;68029;51.978;5.646;2024-01-25T10:17:41;8.7;74.9
78694;SHT31;68029;51.978;5.646;2024-01-25T10:20:15;8.8;74.1
78694;SHT31;68029;51.978;5.646;2024-01-25T10:22:47;8.9;74.0
78694;SHT31;68029;51.978;5.646;2024-01-25T10:25:16;9.0;73.5
78694;SHT31;68029;51.978;5.646;2024-01-25T10:27:44;9.1;72.9
78694;SHT31;68029;51.978;5.646;2024-01-25T10:30:14;9.2;72.7
78694;SHT31;68029;51.978;5.646;2024-01-25T10:32:43;9.3;72.8
78694;SHT31;68029;51.978;5.646;2024-01-25T10:35:14;9.4;72.2
78694;SHT31;68029;51.978;5.646;2024-01-25T10:37:44;9.5;71.7
78694;SHT31;68029;51.978;5.646;2024-01-25T10:40:16;9.6;71.6
78694;SHT31;68029;51.978;5.646;2024-01-25T10:42:47;9.7;71.1
78694;SHT31;68029;51.978;5.646;2024-01-25T10:45:16;9.8;70.1
78694;SHT31;68029;51.978;5.646;2024-01-25T10:47:48;9.8;69.5
78694;SHT31;68029;51.978;5.646;2024-01-25T10:50:17;9.9;69.4
78694;SHT31;68029;51.978;5.646;2024-01-25T10:52:47;9.9;69.8
78694;SHT31;68029;51.978;5.646;2024-01-25T10:55:17;9.9;69.7
78694;SHT31;68029;51.978;5.646;2024-01-25T10:57:46;9.9;69.5
78694;SHT31;68029;51.978;5.646;2024-01-25T11:00:18;10.0;69.0
78694;SHT31;68029;51.978;5.646;2024-01-25T11:02:46;10.0;69.2
78694;SHT31;68029;51.978;5.646;2024-01-25T11:05:17;10.0;69.4
78694;SHT31;68029;51.978;5.646;2024-01-25T11:07:49;9.9;69.4
78694;SHT31;68029;51.978;5.646;2024-01-25T11:10:20;9.9;70.0
78694;SHT31;68029;51.978;5.646;2024-01-25T11:12:57;9.9;69.8
78694;SHT31;68029;51.978;5.646;2024-01-25T11:15:33;9.9;69.7
78694;SHT31;68029;51.978;5.646;2024-01-25T11:18:04;9.9;69.7
78694;SHT31;68029;51.978;5.646;2024-01-25T11:20:36;9.9;70.1
78694;SHT31;68029;51.978;5.646;2024-01-25T11:23:07;9.9;70.0
78694;SHT31;68029;51.978;5.646;2024-01-25T11:25:37;9.9;70.2
78694;SHT31;68029;51.978;5.646;2024-01-25T11:28:06;10.0;69.9
78694;SHT31;68029;51.978;5.646;2024-01-25T11:30:36;10.0;70.1
78694;SHT31;68029;51.978;5.646;2024-01-25T11:33:07;10.0;70.8
78694;SHT31;68029;51.978;5.646;2024-01-25T11:35:36;10.0;70.6
78694;SHT31;68029;51.978;5.646;2024-01-25T11:38:04;10.0;70.9
78694;SHT31;68029;51.978;5.646;2024-01-25T11:40:33;10.0;70.6
78694;SHT31;68029;51.978;5.646;2024-01-25T11:43:05;10.1;70.4
78694;SHT31;68029;51.978;5.646;2024-01-25T11:45:37;10.1;69.9
78694;SHT31;68029;51.978;5.646;2024-01-25T11:48:09;10.1;69.9
78694;SHT31;68029;51.978;5.646;2024-01-25T11:50:40;10.1;69.8
78694;SHT31;68029;51.978;5.646;2024-01-25T11:53:09;10.1;70.3
78694;SHT31;68029;51.978;5.646;2024-01-25T11:55:38;10.1;70.1
78694;SHT31;68029;51.978;5.646;2024-01-25T11:58:07;10.1;69.6
78694;SHT31;68029;51.978;5.646;2024-01-25T12:00:38;10.1;69.8
78694;SHT31;68029;51.978;5.646;2024-01-25T12:03:08;10.1;70.0
78694;SHT31;68029;51.978;5.646;2024-01-25T12:05:37;10.2;69.9
78694;SHT31;68029;51.978;5.646;2024-01-25T12:08:13;10.2;69.6
78694;SHT31;68029;51.978;5.646;2024-01-25T12:10:44;10.1;69.6
78694;SHT31;68029;51.978;5.646;2024-01-25T12:13:12;10.1;69.5
78694;SHT31;68029;51.978;5.646;2024-01-25T12:15:41;10.1;70.0
78694;SHT31;68029;51.978;5.646;2024-01-25T12:18:10;10.1;69.6
78694;SHT31;68029;51.978;5.646;2024-01-25T12:20:40;10.1;70.0
78694;SHT31;68029;51.978;5.646;2024-01-25T12:23:11;10.0;71.0
78694;SHT31;68029;51.978;5.646;2024-01-25T12:25:43;10.0;70.8
78694;SHT31;68029;51.978;5.646;2024-01-25T12:28:11;10.1;71.2
78694;SHT31;68029;51.978;5.646;2024-01-25T12:30:40;10.1;70.3
78694;SHT31;68029;51.978;5.646;2024-01-25T12:33:08;10.2;70.1
78694;SHT31;68029;51.978;5.646;2024-01-25T12:35:37;10.2;70.7
78694;SHT31;68029;51.978;5.646;2024-01-25T12:38:07;10.3;70.9
78694;SHT31;68029;51.978;5.646;2024-01-25T12:40:36;10.4;70.4
78694;SHT31;68029;51.978;5.646;2024-01-25T12:43:07;10.5;69.8
78694;SHT31;68029;51.978;5.646;2024-01-25T12:45:35;10.6;68.8
78694;SHT31;68029;51.978;5.646;2024-01-25T12:48:05;10.6;69.0
78694;SHT31;68029;51.978;5.646;2024-01-25T12:50:36;10.7;68.5
78694;SHT31;68029;51.978;5.646;2024-01-25T12:53:05;10.7;68.3
78694;SHT31;68029;51.978;5.646;2024-01-25T12:55:35;10.7;68.1
78694;SHT31;68029;51.978;5.646;2024-01-25T12:58:04;10.7;68.2
78694;SHT31;68029;51.978;5.646;2024-01-25T13:00:32;10.7;68.3
78694;SHT31;68029;51.978;5.646;2024-01-25T13:03:01;10.7;68.6
78694;SHT31;68029;51.978;5.646;2024-01-25T13:05:30;10.7;68.4
78694;SHT31;68029;51.978;5.646;2024-01-25T13:08:00;10.7;68.5
78694;SHT31;68029;51.978;5.646;2024-01-25T13:10:30;10.6;68.9
78694;SHT31;68029;51.978;5.646;2024-01-25T13:12:58;10.6;69.2
78694;SHT31;68029;51.978;5.646;2024-01-25T13:15:29;10.6;68.8
78694;SHT31;68029;51.978;5.646;2024-01-25T13:17:58;10.6;68.5
78694;SHT31;68029;51.978;5.646;2024-01-25T13:20:27;10.6;69.0
78694;SHT31;68029;51.978;5.646;2024-01-25T13:22:56;10.6;69.1
78694;SHT31;68029;51.978;5.646;2024-01-25T13:25:24;10.5;69.3
78694;SHT31;68029;51.978;5.646;2024-01-25T13:27:53;10.5;69.3
78694;SHT31;68029;51.978;5.646;2024-01-25T13:30:22;10.5;69.5
78694;SHT31;68029;51.978;5.646;2024-01-25T13:32:50;10.5;69.6
78694;SHT31;68029;51.978;5.646;2024-01-25T13:35:19;10.4;69.6
78694;SHT31;68029;51.978;5.646;2024-01-25T13:37:48;10.4;70.0
78694;SHT31;68029;51.978;5.646;2024-01-25T13:40:16;10.4;70.1
78694;SHT31;68029;51.978;5.646;2024-01-25T13:42:44;10.4;69.8
78694;SHT31;68029;51.978;5.646;2024-01-25T13:45:15;10.4;69.7
78694;SHT31;68029;51.978;5.646;2024-01-25T13:47:44;10.4;70.0
78694;SHT31;68029;51.978;5.646;2024-01-25T13:50:15;10.4;70.2
78694;SHT31;68029;51.978;5.646;2024-01-25T13:52:44;10.4;70.3
78694;SHT31;68029;51.978;5.646;2024-01-25T13:55:12;10.3;70.5
78694;SHT31;68029;51.978;5.646;2024-01-25T13:57:41;10.3;70.8
78694;SHT31;68029;51.978;5.646;2024-01-25T14:00:14;10.3;70.9
78694;SHT31;68029;51.978;5.646;2024-01-25T14:02:43;10.3;71.0
78694;SHT31;68029;51.978;5.646;2024-01-25T14:05:13;10.3;71.1
78694;SHT31;68029;51.978;5.646;2024-01-25T14:07:41;10.3;71.1
78694;SHT31;68029;51.978;5.646;2024-01-25T14:10:11;10.3;71.2
78694;SHT31;68029;51.978;5.646;2024-01-25T14:12:39;10.3;71.1
78694;SHT31;68029;51.978;5.646;2024-01-25T14:15:09;10.3;71.4
78694;SHT31;68029;51.978;5.646;2024-01-25T14:17:38;10.3;71.4
78694;SHT31;68029;51.978;5.646;2024-01-25T14:20:08;10.2;71.4
78694;SHT31;68029;51.978;5.646;2024-01-25T14:22:37;10.2;71.7
78694;SHT31;68029;51.978;5.646;2024-01-25T14:25:06;10.2;71.9
78694;SHT31;68029;51.978;5.646;2024-01-25T14:27:35;10.2;72.1
78694;SHT31;68029;51.978;5.646;2024-01-25T14:30:04;10.1;72.3
78694;SHT31;68029;51.978;5.646;2024-01-25T14:32:33;10.1;72.5
78694;SHT31;68029;51.978;5.646;2024-01-25T14:35:02;10.1;72.5
78694;SHT31;68029;51.978;5.646;2024-01-25T14:37:31;10.1;72.6
78694;SHT31;68029;51.978;5.646;2024-01-25T14:39:59;10.1;72.6
78694;SHT31;68029;51.978;5.646;2024-01-25T14:42:29;10.1;72.6
78694;SHT31;68029;51.978;5.646;2024-01-25T14:44:57;10.1;72.6
78694;SHT31;68029;51.978;5.646;2024-01-25T14:47:25;10.1;72.8
78694;SHT31;68029;51.978;5.646;2024-01-25T14:49:54;10.1;72.7
78694;SHT31;68029;51.978;5.646;2024-01-25T14:52:22;10.1;72.8
78694;SHT31;68029;51.978;5.646;2024-01-25T14:54:51;10.1;72.9
78694;SHT31;68029;51.978;5.646;2024-01-25T14:57:19;10.1;73.1
78694;SHT31;68029;51.978;5.646;2024-01-25T14:59:48;10.1;73.3
78694;SHT31;68029;51.978;5.646;2024-01-25T15:02:16;10.1;73.5
78694;SHT31;68029;51.978;5.646;2024-01-25T15:04:45;10.1;73.9
78694;SHT31;68029;51.978;5.646;2024-01-25T15:07:13;10.1;74.0
78694;SHT31;68029;51.978;5.646;2024-01-25T15:09:42;10.1;74.0
78694;SHT31;68029;51.978;5.646;2024-01-25T15:12:10;10.0;74.2
78694;SHT31;68029;51.978;5.646;2024-01-25T15:14:41;10.0;74.2
78694;SHT31;68029;51.978;5.646;2024-01-25T15:17:10;10.0;74.5
78694;SHT31;68029;51.978;5.646;2024-01-25T15:19:39;10.0;75.0
78694;SHT31;68029;51.978;5.646;2024-01-25T15:22:09;10.0;75.1
78694;SHT31;68029;51.978;5.646;2024-01-25T15:24:38;10.0;75.0
78694;SHT31;68029;51.978;5.646;2024-01-25T15:27:06;10.0;75.4
78694;SHT31;68029;51.978;5.646;2024-01-25T15:29:38;9.9;75.8
78694;SHT31;68029;51.978;5.646;2024-01-25T15:32:07;9.9;76.2
78694;SHT31;68029;51.978;5.646;2024-01-25T15:34:36;9.9;76.6
78694;SHT31;68029;51.978;5.646;2024-01-25T15:37:06;9.8;76.9
78694;SHT31;68029;51.978;5.646;2024-01-25T15:39:34;9.8;77.2
78694;SHT31;68029;51.978;5.646;2024-01-25T15:42:02;9.8;77.3
78694;SHT31;68029;51.978;5.646;2024-01-25T15:44:31;9.7;77.6
78694;SHT31;68029;51.978;5.646;2024-01-25T15:46:59;9.7;77.8
78694;SHT31;68029;51.978;5.646;2024-01-25T15:49:28;9.7;78.0
78694;SHT31;68029;51.978;5.646;2024-01-25T15:51:58;9.6;78.3
78694;SHT31;68029;51.978;5.646;2024-01-25T15:54:27;9.6;78.5
78694;SHT31;68029;51.978;5.646;2024-01-25T15:56:55;9.6;78.9
78694;SHT31;68029;51.978;5.646;2024-01-25T15:59:24;9.6;78.9
78694;SHT31;68029;51.978;5.646;2024-01-25T16:01:52;9.6;79.0
78694;SHT31;68029;51.978;5.646;2024-01-25T16:04:21;9.5;79.3
78694;SHT31;68029;51.978;5.646;2024-01-25T16:06:49;9.5;79.3
78694;SHT31;68029;51.978;5.646;2024-01-25T16:09:17;9.5;79.6
78694;SHT31;68029;51.978;5.646;2024-01-25T16:11:46;9.5;79.6
78694;SHT31;68029;51.978;5.646;2024-01-25T16:14:14;9.5;79.8
78694;SHT31;68029;51.978;5.646;2024-01-25T16:16:43;9.5;79.8
78694;SHT31;68029;51.978;5.646;2024-01-25T16:19:11;9.5;79.8
78694;SHT31;68029;51.978;5.646;2024-01-25T16:21:40;9.5;79.7
78694;SHT31;68029;51.978;5.646;2024-01-25T16:24:08;9.5;79.7
78694;SHT31;68029;51.978;5.646;2024-01-25T16:26:37;9.5;79.7